Terminal Aerodrome Forecast
Issued by NWS

Home | Current Version | Previous Version | Text Only | Print | Product List | Glossary On
Versions: 1 2 3 4 5 6 7 8 9 10 11 12 13 14
152
FTUS43 KDLH 302341
TAFBRD
TAF
KBRD 302341Z 0100/0124 06012KT P6SM FEW080
     FM010300 05005KT P6SM SKC
     FM011300 04012KT P6SM SKC
     FM012100 VRB05KT P6SM FEW060=

USA.gov is the U.S. government's official web portal to all federal, state and local government web resources and services.